Time;durP1;ratioP1;P1;durP2;ratioP2;P2;SDS_P1;SDS_P2;PMS_P1;PMS_P2;Temp;Humidity;BMP_temperature;BMP_pressure;BME280_temperature;BME280_humidity;BME280_pressure;Samples;Min_cycle;Max_cycle;Signal;HPM_P1;HPM_P2
2023/03/29 00:07:03;;;;;;;22.27;10.85;;;;;;;-3.15;56.16;100857.72;30614859;28;97204;-66
2023/03/29 00:22:06;;;;;;;24.15;10.32;;;;;;;-3.32;57.31;100850.59;30613104;28;96647;-64
2023/03/29 00:37:07;;;;;;;17.42;9.73;;;;;;;-3.34;57.78;100857.66;30612415;28;97957;-63
2023/03/29 00:52:08;;;;;;;20.90;10.07;;;;;;;-3.41;58.97;100852.69;30622323;28;96718;-64
2023/03/29 01:07:17;;;;;;;47.55;21.10;;;;;;;-3.57;59.81;100847.28;30631279;28;96741;-63
2023/03/29 01:22:50;;;;;;;36.42;18.67;;;;;;;-3.74;60.41;100824.53;30629870;28;96813;-64
2023/03/29 01:38:01;;;;;;;27.92;15.30;;;;;;;-3.88;60.87;100815.59;30628548;28;97642;-64
2023/03/29 01:53:10;;;;;;;27.40;12.30;;;;;;;-3.82;61.18;100805.78;30626500;28;96684;-63
2023/03/29 02:08:15;;;;;;;22.35;10.35;;;;;;;-3.81;61.66;100806.63;30625369;28;97209;-66
2023/03/29 02:23:16;;;;;;;16.08;8.57;;;;;;;-3.90;62.59;100802.63;30623910;28;96681;-64
2023/03/29 02:38:18;;;;;;;18.30;10.20;;;;;;;-3.85;62.96;100789.44;30623242;28;96823;-64
2023/03/29 02:53:23;;;;;;;20.88;9.13;;;;;;;-3.88;63.42;100782.59;30620291;28;96664;-64
2023/03/29 03:08:24;;;;;;;22.17;10.35;;;;;;;-3.69;63.67;100766.19;30619141;28;96875;-63
2023/03/29 03:23:24;;;;;;;14.57;7.72;;;;;;;-3.56;63.89;100749.16;30617407;28;96780;-64
2023/03/29 03:38:24;;;;;;;11.50;6.60;;;;;;;-3.45;63.77;100740.88;30612987;28;96713;-64
2023/03/29 03:53:26;;;;;;;11.05;6.40;;;;;;;-3.50;63.99;100728.06;30610597;28;105051;-65
2023/03/29 04:08:26;;;;;;;11.18;5.28;;;;;;;-3.49;64.30;100723.69;30605484;28;96778;-64
2023/03/29 04:23:27;;;;;;;10.57;6.93;;;;;;;-3.44;64.89;100717.34;30605138;28;96931;-64
2023/03/29 04:38:27;;;;;;;15.27;8.35;;;;;;;-3.26;64.95;100709.66;30601737;28;97559;-68
2023/03/29 04:53:28;;;;;;;14.77;5.90;;;;;;;-3.05;64.10;100713.03;30607672;28;97143;-64
2023/03/29 05:08:28;;;;;;;9.80;5.82;;;;;;;-2.79;65.16;100706.63;30608033;28;97195;-67
2023/03/29 05:23:29;;;;;;;18.70;6.55;;;;;;;-2.46;64.93;100702.47;30602899;28;114062;-68
2023/03/29 05:38:31;;;;;;;10.38;6.60;;;;;;;-1.85;64.61;100697.75;30621687;28;97114;-67
2023/03/29 05:53:32;;;;;;;13.23;6.68;;;;;;;-1.03;64.84;100695.16;30625723;28;97294;-65
2023/03/29 06:08:33;;;;;;;11.45;5.72;;;;;;;-0.11;64.08;100672.63;30622726;28;96644;-65
2023/03/29 06:23:35;;;;;;;15.82;6.80;;;;;;;0.45;62.62;100679.78;30620953;28;96692;-64
2023/03/29 06:38:35;;;;;;;9.35;4.90;;;;;;;1.85;62.59;100673.56;30616926;28;98612;-66
2023/03/29 06:53:35;;;;;;;10.52;4.78;;;;;;;3.47;58.95;100658.84;30615187;28;110119;-65
2023/03/29 07:08:42;;;;;;;8.15;4.25;;;;;;;3.79;56.84;100666.13;30616846;28;97086;-62
2023/03/29 07:23:42;;;;;;;6.78;3.55;;;;;;;4.56;54.51;100662.06;30614042;28;96711;-61
2023/03/29 07:38:43;;;;;;;7.20;4.20;;;;;;;5.55;53.69;100652.41;30616665;28;97195;-64
2023/03/29 07:53:43;;;;;;;11.55;4.45;;;;;;;8.36;51.27;100656.13;30630346;28;103639;-66
2023/03/29 08:08:44;;;;;;;7.10;3.30;;;;;;;9.79;47.51;100646.78;30622344;28;98046;-67
2023/03/29 08:23:44;;;;;;;9.65;3.58;;;;;;;10.94;42.93;100627.97;30605039;28;97542;-66
2023/03/29 08:38:45;;;;;;;7.07;2.75;;;;;;;12.43;38.94;100612.81;30662113;28;97356;-66
2023/03/29 08:53:51;;;;;;;6.65;2.90;;;;;;;12.65;35.68;100616.56;30609996;28;96959;-64
2023/03/29 09:08:52;;;;;;;7.27;3.40;;;;;;;14.78;34.02;100606.97;30612605;28;96541;-66
2023/03/29 09:23:55;;;;;;;7.13;3.00;;;;;;;24.33;21.06;100590.38;30627273;28;96597;-68
2023/03/29 09:38:56;;;;;;;4.20;2.30;;;;;;;30.23;16.90;100583.34;30626815;28;97037;-66
2023/03/29 09:53:58;;;;;;;5.85;2.65;;;;;;;32.51;13.17;100564.78;30645125;28;96976;-65
2023/03/29 10:09:00;;;;;;;5.40;2.80;;;;;;;29.70;13.62;100552.03;30632909;28;96751;-64
2023/03/29 10:24:00;;;;;;;4.50;2.70;;;;;;;24.20;17.64;100535.47;30614575;28;97563;-68
2023/03/29 10:39:02;;;;;;;;;;;;;;;17.34;23.42;100524.28;30608689;28;97367;-67
2023/03/29 10:54:04;;;;;;;;;;;;;;;16.74;24.12;100519.59;30618616;28;97516;-68
2023/03/29 11:09:27;;;;;;;9.10;3.30;;;;;;;16.81;25.01;100492.72;30617716;28;97427;-72
2023/03/29 11:24:33;;;;;;;7.00;2.47;;;;;;;17.54;24.74;100465.03;30615495;28;97477;-67
2023/03/29 11:40:01;;;;;;;7.40;3.57;;;;;;;18.92;22.29;100447.66;30610886;28;97106;-65
2023/03/29 11:55:12;;;;;;;5.70;2.67;;;;;;;25.77;16.60;100412.88;30605362;28;97939;-61
2023/03/29 12:10:22;;;;;;;6.17;2.80;;;;;;;31.00;12.69;100402.69;30610731;28;97030;-77
2023/03/29 12:25:29;;;;;;;5.00;2.57;;;;;;;31.11;11.82;100378.59;30608728;28;97571;-73
2023/03/29 12:40:38;;;;;;;;;;;;;;;30.81;11.95;100356.00;30602941;28;96968;-67
2023/03/29 12:55:49;;;;;;;5.70;2.13;;;;;;;21.51;17.96;100350.78;30625763;28;96931;-63
2023/03/29 13:10:53;;;;;;;5.83;2.10;;;;;;;19.66;20.32;100341.59;30625505;28;97118;-69
2023/03/29 13:26:07;;;;;;;7.73;2.63;;;;;;;17.01;23.63;100312.47;30624479;28;97396;-67
2023/03/29 13:41:30;;;;;;;9.60;2.47;;;;;;;16.03;24.94;100308.47;30622524;28;96814;-69
2023/03/29 13:56:38;;;;;;;4.77;2.20;;;;;;;15.64;25.47;100305.44;30649915;28;97097;-69
2023/03/29 14:11:43;;;;;;;8.00;3.53;;;;;;;13.60;28.23;100284.63;30674995;28;97580;-69
2023/03/29 14:26:46;;;;;;;7.53;2.60;;;;;;;13.26;29.20;100291.38;30678125;28;97278;-66
2023/03/29 14:41:58;;;;;;;6.77;3.23;;;;;;;12.24;30.11;100282.00;30680245;28;97214;-67
2023/03/29 14:57:02;;;;;;;6.60;2.90;;;;;;;11.92;30.93;100260.69;30704043;28;97055;-69
2023/03/29 15:12:02;;;;;;;4.00;2.07;;;;;;;11.73;32.17;100239.78;30727541;28;98057;-68
2023/03/29 15:27:12;;;;;;;5.05;3.08;;;;;;;11.35;32.48;100227.16;30684373;28;96748;-61
2023/03/29 15:42:12;;;;;;;9.53;3.47;;;;;;;10.25;35.68;100244.56;30611022;28;97130;-69
2023/03/29 15:57:14;;;;;;;6.95;2.70;;;;;;;9.54;37.96;100244.16;30606447;28;97185;-67
2023/03/29 16:12:15;;;;;;;5.07;2.93;;;;;;;9.19;39.90;100261.97;30606987;28;97871;-68
2023/03/29 16:27:16;;;;;;;6.38;4.00;;;;;;;8.78;41.00;100246.63;30602681;28;97184;-64
2023/03/29 16:42:17;;;;;;;5.70;3.43;;;;;;;8.31;42.26;100252.28;30603946;28;97066;-70
2023/03/29 16:57:17;;;;;;;5.88;3.05;;;;;;;7.91;43.46;100251.78;30588811;28;97575;-68
2023/03/29 17:12:19;;;;;;;5.35;3.47;;;;;;;7.74;44.77;100247.28;30602409;28;104681;-68
2023/03/29 17:27:20;;;;;;;6.73;4.10;;;;;;;7.56;45.72;100236.63;30606783;28;96745;-70
2023/03/29 17:42:20;;;;;;;7.00;3.60;;;;;;;7.37;46.31;100235.78;30619207;28;96714;-75
2023/03/29 17:57:20;;;;;;;13.10;4.85;;;;;;;7.25;47.06;100236.97;30606438;28;97250;-71
2023/03/29 18:12:24;;;;;;;12.45;5.18;;;;;;;7.07;48.31;100248.34;30605701;28;97466;-76
2023/03/29 18:27:25;;;;;;;8.07;4.43;;;;;;;6.94;49.16;100258.44;30613899;28;96737;-71
2023/03/29 18:42:25;;;;;;;7.90;4.30;;;;;;;6.74;50.77;100249.72;30613121;28;97142;-74
2023/03/29 18:57:26;;;;;;;9.40;5.80;;;;;;;6.59;51.33;100252.81;30609456;28;97268;-73
2023/03/29 19:12:28;;;;;;;8.23;5.32;;;;;;;6.61;52.02;100242.09;30702249;28;100842;-74
2023/03/29 19:27:28;;;;;;;7.05;4.25;;;;;;;6.59;52.33;100228.19;30616333;28;97049;-74
2023/03/29 19:42:28;;;;;;;8.68;4.35;;;;;;;6.52;54.15;100235.00;30612923;28;103297;-73
2023/03/29 19:57:29;;;;;;;9.13;5.22;;;;;;;6.57;54.11;100216.88;30612893;28;97303;-68
2023/03/29 20:12:30;;;;;;;8.85;5.63;;;;;;;6.56;54.74;100204.63;30612299;28;97507;-72
2023/03/29 20:27:30;;;;;;;9.80;5.30;;;;;;;6.54;55.05;100196.00;30610722;28;97301;-72
2023/03/29 20:42:33;;;;;;;10.45;5.00;;;;;;;6.44;55.86;100196.84;30625962;28;97220;-71
2023/03/29 20:57:34;;;;;;;10.20;5.32;;;;;;;6.34;56.34;100190.78;30609091;28;96584;-70
2023/03/29 21:12:35;;;;;;;14.32;6.53;;;;;;;6.34;57.48;100169.59;30625942;28;96722;-72
2023/03/29 21:27:36;;;;;;;16.35;6.85;;;;;;;6.40;57.77;100142.56;30629843;28;96837;-74
2023/03/29 21:42:36;;;;;;;10.17;5.10;;;;;;;6.08;58.07;100133.19;30628370;28;97405;-72
2023/03/29 21:57:37;;;;;;;10.02;5.72;;;;;;;5.92;58.74;100117.03;30627831;28;96781;-75
2023/03/29 22:12:38;;;;;;;9.23;5.25;;;;;;;6.02;59.42;100112.56;30626956;28;96758;-76
2023/03/29 22:27:38;;;;;;;9.23;5.45;;;;;;;6.17;59.81;100083.03;30625138;28;96685;-73
2023/03/29 22:42:39;;;;;;;12.00;5.63;;;;;;;6.17;59.90;100069.81;30625266;28;96797;-71
2023/03/29 22:57:39;;;;;;;16.02;6.93;;;;;;;6.20;60.64;100066.88;30622238;28;96660;-73
2023/03/29 23:12:41;;;;;;;10.85;6.80;;;;;;;6.26;60.54;100055.69;30621383;28;96692;-72
2023/03/29 23:27:42;;;;;;;10.52;6.18;;;;;;;6.23;60.91;100045.41;30618114;28;97332;-74
2023/03/29 23:42:44;;;;;;;10.45;6.07;;;;;;;6.19;61.43;100036.09;30618499;28;96758;-73
2023/03/29 23:57:45;;;;;;;12.85;6.10;;;;;;;6.22;62.45;100017.28;30617178;28;96715;-75
